Time;durP1;ratioP1;P1;durP2;ratioP2;P2;SDS_P1;SDS_P2;PMS_P1;PMS_P2;Temp;Humidity;BMP_temperature;BMP_pressure;BME280_temperature;BME280_humidity;BME280_pressure;Samples;Min_cycle;Max_cycle;Signal;HPM_P1;HPM_P2
2023/01/28 00:00:35;;;;;;;1.90;1.30;;;5.40;39.00;;;;;;4952002;29;20286;-71
2023/01/28 00:03:00;;;;;;;2.00;1.33;;;4.90;39.40;;;;;;4953115;28;20651;-72
2023/01/28 00:05:28;;;;;;;3.03;1.70;;;5.00;39.90;;;;;;4951346;29;20667;-71
2023/01/28 00:07:54;;;;;;;2.00;1.40;;;5.30;39.00;;;;;;4951438;29;20214;-72
2023/01/28 00:10:19;;;;;;;2.73;1.80;;;5.50;38.60;;;;;;4950425;29;20188;-71
2023/01/28 00:12:45;;;;;;;2.23;1.70;;;5.50;38.30;;;;;;4955166;29;20364;-72
2023/01/28 00:15:11;;;;;;;2.40;1.77;;;5.30;38.40;;;;;;4949137;29;20270;-73
2023/01/28 00:17:37;;;;;;;2.17;1.40;;;5.40;39.40;;;;;;4954358;29;20628;-74
2023/01/28 00:20:03;;;;;;;1.80;1.15;;;5.40;38.70;;;;;;4953543;28;20587;-72
2023/01/28 00:22:30;;;;;;;3.92;2.42;;;5.50;38.60;;;;;;4954405;29;20250;-79
2023/01/28 00:24:56;;;;;;;1.80;1.20;;;5.50;38.60;;;;;;4953404;28;20256;-71
2023/01/28 00:27:21;;;;;;;3.33;1.73;;;5.50;38.20;;;;;;4953566;29;20655;-72
2023/01/28 00:29:47;;;;;;;3.20;1.97;;;5.60;37.80;;;;;;4956279;29;20210;-73
2023/01/28 00:32:13;;;;;;;1.80;1.20;;;5.60;38.10;;;;;;4955489;28;20219;-72
2023/01/28 00:34:39;;;;;;;1.70;1.20;;;5.40;38.10;;;;;;4955145;29;20442;-71
2023/01/28 00:37:05;;;;;;;1.87;1.30;;;5.50;38.20;;;;;;4953437;28;20191;-71
2023/01/28 00:39:30;;;;;;;1.90;1.30;;;5.50;38.00;;;;;;4956513;29;20175;-72
2023/01/28 00:41:56;;;;;;;2.10;1.40;;;5.70;37.60;;;;;;4953582;29;20279;-72
2023/01/28 00:44:21;;;;;;;1.90;1.30;;;5.80;37.20;;;;;;4954947;29;20562;-71
2023/01/28 00:46:47;;;;;;;1.93;1.30;;;5.40;38.00;;;;;;4955787;29;20230;-75
2023/01/28 00:49:13;;;;;;;1.90;1.20;;;5.30;38.80;;;;;;4956201;29;20583;-72
2023/01/28 00:51:38;;;;;;;2.00;1.60;;;5.30;38.50;;;;;;4953543;29;20188;-72
2023/01/28 00:54:04;;;;;;;2.00;1.40;;;5.30;38.50;;;;;;4955914;29;20291;-72
2023/01/28 00:56:30;;;;;;;1.97;1.33;;;5.40;38.70;;;;;;4956486;29;20560;-72
2023/01/28 00:58:56;;;;;;;2.47;1.40;;;5.50;38.20;;;;;;4956038;28;20430;-73
2023/01/28 01:01:24;;;;;;;2.00;1.40;;;5.60;37.30;;;;;;4955100;29;20470;-72
2023/01/28 01:03:56;;;;;;;2.30;1.40;;;5.50;37.60;;;;;;4954774;29;20191;-73
2023/01/28 01:06:23;;;;;;;1.77;1.15;;;5.10;39.00;;;;;;4955932;28;20179;-72
2023/01/28 01:08:50;;;;;;;1.90;1.30;;;5.10;38.70;;;;;;4955130;28;20322;-72
2023/01/28 01:11:16;;;;;;;1.80;1.20;;;5.20;39.10;;;;;;4955635;29;20687;-72
2023/01/28 01:13:42;;;;;;;1.90;1.30;;;5.00;39.40;;;;;;4953689;28;20215;-75
2023/01/28 01:16:11;;;;;;;1.83;1.20;;;5.10;38.60;;;;;;4955563;29;20190;-72
2023/01/28 01:18:40;;;;;;;2.35;1.48;;;5.00;39.40;;;;;;4953647;29;20231;-72
2023/01/28 01:21:18;;;;;;;2.15;1.52;;;5.20;38.60;;;;;;4955912;29;20175;-72
2023/01/28 01:23:44;;;;;;;2.00;1.40;;;5.30;38.50;;;;;;4951334;29;20752;-72
2023/01/28 01:26:09;;;;;;;2.33;1.77;;;5.50;37.90;;;;;;4953564;29;20191;-72
2023/01/28 01:28:36;;;;;;;1.80;1.20;;;5.60;37.40;;;;;;4954321;28;20203;-72
2023/01/28 01:31:13;;;;;;;1.80;1.20;;;5.60;37.40;;;;;;4955453;29;20182;-72
2023/01/28 01:33:40;;;;;;;1.98;1.33;;;5.40;37.50;;;;;;4954542;29;20206;-72
2023/01/28 01:36:07;;;;;;;2.15;1.50;;;5.30;38.10;;;;;;4958069;28;20176;-72
2023/01/28 01:38:34;;;;;;;1.85;1.20;;;5.30;38.10;;;;;;4949400;28;20285;-73
2023/01/28 01:41:00;;;;;;;1.80;1.20;;;5.30;38.10;;;;;;4953880;29;20180;-72
2023/01/28 01:43:48;;;;;;;1.70;1.10;;;5.50;37.80;;;;;;4954862;29;20276;-72
2023/01/28 01:46:17;;;;;;;2.10;1.42;;;5.40;37.80;;;;;;4935297;29;20507;-73
2023/01/28 01:48:43;;;;;;;1.80;1.20;;;5.20;38.10;;;;;;4952076;28;20215;-74
2023/01/28 01:51:14;;;;;;;2.10;1.40;;;5.30;38.20;;;;;;4948518;29;20242;-75
2023/01/28 01:53:47;;;;;;;1.80;1.30;;;5.20;38.60;;;;;;4935319;29;21029;-73
2023/01/28 01:56:17;;;;;;;1.80;1.10;;;5.00;39.20;;;;;;4947754;29;20258;-72
2023/01/28 01:58:48;;;;;;;2.28;1.60;;;5.10;39.10;;;;;;4954825;28;20196;-72
2023/01/28 02:01:15;;;;;;;1.83;1.23;;;5.40;38.50;;;;;;4944308;28;20187;-72
2023/01/28 02:04:02;;;;;;;2.03;1.38;;;5.40;38.30;;;;;;4954144;28;20191;-72
2023/01/28 02:06:29;;;;;;;2.10;1.48;;;5.10;38.80;;;;;;4935873;29;20194;-72
2023/01/28 02:08:55;;;;;;;1.80;1.20;;;4.70;39.40;;;;;;4954037;28;20270;-72
2023/01/28 02:11:29;;;;;;;1.92;1.40;;;4.80;40.20;;;;;;4952953;29;20198;-72
2023/01/28 02:13:58;;;;;;;1.90;1.30;;;4.90;39.70;;;;;;4954071;29;20187;-80
2023/01/28 02:16:24;;;;;;;2.13;1.30;;;5.10;38.50;;;;;;4942036;29;20250;-73
2023/01/28 02:18:50;;;;;;;1.80;1.20;;;5.20;39.10;;;;;;4953796;28;20207;-72
2023/01/28 02:21:37;;;;;;;1.90;1.30;;;5.10;39.00;;;;;;4953198;29;20550;-74
2023/01/28 02:24:09;;;;;;;1.80;1.30;;;5.30;38.60;;;;;;4949374;28;20265;-72
2023/01/28 02:26:53;;;;;;;2.00;1.38;;;5.30;38.00;;;;;;4950005;29;20187;-72
2023/01/28 02:29:43;;;;;;;1.95;1.35;;;5.10;38.60;;;;;;4953967;28;20207;-73
2023/01/28 02:32:35;;;;;;;1.73;1.10;;;5.20;39.00;;;;;;4950085;29;20677;-72
2023/01/28 02:35:12;;;;;;;3.40;2.15;;;5.10;38.30;;;;;;4951275;28;20214;-72
2023/01/28 02:37:52;;;;;;;2.00;1.40;;;5.10;38.70;;;;;;4953331;28;20206;-78
2023/01/28 02:40:23;;;;;;;1.90;1.30;;;4.60;40.00;;;;;;4950338;29;20185;-78
2023/01/28 02:42:49;;;;;;;2.05;1.52;;;4.50;40.60;;;;;;4952961;28;20261;-72
2023/01/28 02:47:56;;;;;;;2.45;2.00;;;4.60;40.50;;;;;;4954031;29;20190;-73
2023/01/28 02:48:16;;;;;;;1.90;1.30;;;4.90;40.10;;;;;;4938803;29;20207;-75
2023/01/28 02:50:53;;;;;;;2.00;1.40;;;5.10;39.80;;;;;;4953991;29;20163;-72
2023/01/28 02:53:44;;;;;;;1.88;1.20;;;5.00;39.80;;;;;;4952906;29;20600;-73
2023/01/28 02:56:28;;;;;;;1.95;1.30;;;5.00;39.90;;;;;;4950905;29;20190;-72
2023/01/28 02:59:29;;;;;;;1.95;1.20;;;4.80;40.60;;;;;;4934837;29;20276;-72
2023/01/28 03:02:14;;;;;;;2.00;1.45;;;4.50;41.70;;;;;;4948405;29;20650;-72
2023/01/28 03:05:09;;;;;;;2.42;1.65;;;4.50;41.70;;;;;;4951047;28;20254;-72
2023/01/28 03:07:37;;;;;;;1.80;1.20;;;4.70;41.50;;;;;;4903924;29;20254;-73
2023/01/28 03:10:06;;;;;;;2.15;1.48;;;5.10;40.80;;;;;;4909672;29;20173;-73
2023/01/28 03:38:40;;;;;;;2.00;1.40;;;5.00;41.00;;;;;;4897408;29;20294;-73
2023/01/28 03:41:09;;;;;;;2.70;2.05;;;5.20;40.10;;;;;;4899223;29;20529;-72
2023/01/28 03:43:35;;;;;;;1.88;1.30;;;5.30;39.50;;;;;;4918777;29;20205;-72
2023/01/28 03:46:02;;;;;;;1.90;1.20;;;4.90;40.80;;;;;;4957005;29;20319;-72
2023/01/28 03:48:28;;;;;;;2.13;1.40;;;5.20;40.30;;;;;;4956463;28;20218;-72
2023/01/28 03:50:59;;;;;;;1.83;1.20;;;5.00;40.00;;;;;;4956346;28;20250;-72
2023/01/28 03:53:25;;;;;;;2.10;1.50;;;5.10;40.40;;;;;;4955001;29;20250;-75
2023/01/28 03:55:52;;;;;;;2.30;1.60;;;5.10;39.80;;;;;;4954664;29;20194;-72
2023/01/28 03:58:19;;;;;;;5.35;1.85;;;5.10;40.00;;;;;;4956611;28;20607;-72
2023/01/28 04:00:45;;;;;;;1.80;1.20;;;5.30;39.60;;;;;;4957545;28;20190;-72
2023/01/28 04:03:15;;;;;;;2.00;1.30;;;5.20;40.00;;;;;;4953702;29;20192;-73
2023/01/28 04:05:58;;;;;;;2.30;1.60;;;5.20;40.00;;;;;;4949591;29;20481;-72
2023/01/28 04:08:23;;;;;;;1.90;1.30;;;5.20;39.80;;;;;;4955965;28;20222;-72
2023/01/28 04:10:49;;;;;;;2.50;2.10;;;5.20;39.60;;;;;;4956638;29;20198;-72
2023/01/28 04:13:15;;;;;;;2.00;1.40;;;5.00;40.20;;;;;;4955199;29;20202;-72
2023/01/28 04:15:42;;;;;;;2.20;1.50;;;4.90;40.40;;;;;;4952532;29;20635;-77
2023/01/28 04:18:08;;;;;;;1.90;1.30;;;4.60;41.60;;;;;;4956531;28;20200;-72
2023/01/28 04:20:35;;;;;;;2.30;1.58;;;4.50;42.50;;;;;;4956323;28;20620;-72
2023/01/28 04:23:00;;;;;;;2.63;1.38;;;5.00;40.60;;;;;;4956525;28;20222;-72
2023/01/28 04:25:26;;;;;;;1.83;1.23;;;5.20;39.80;;;;;;4953047;29;20337;-74
2023/01/28 04:27:52;;;;;;;1.70;1.10;;;5.10;40.30;;;;;;4952944;29;20254;-72
2023/01/28 04:30:18;;;;;;;2.90;1.90;;;5.10;40.20;;;;;;4956272;28;20542;-71
2023/01/28 04:32:46;;;;;;;2.00;1.50;;;5.20;39.90;;;;;;4952099;29;20475;-71
2023/01/28 04:35:11;;;;;;;3.10;1.60;;;5.40;39.60;;;;;;4954179;29;20265;-72
2023/01/28 04:37:39;;;;;;;4.00;1.50;;;5.30;39.90;;;;;;4946496;29;20322;-76
2023/01/28 04:40:06;;;;;;;1.90;1.30;;;4.60;41.20;;;;;;4956370;29;20551;-75
2023/01/28 04:42:31;;;;;;;1.85;1.27;;;4.80;41.30;;;;;;4956121;28;20698;-72
2023/01/28 04:44:57;;;;;;;1.80;1.20;;;4.90;41.10;;;;;;4953407;29;20191;-72
2023/01/28 04:47:22;;;;;;;1.87;1.20;;;5.20;41.30;;;;;;4953532;29;20262;-75
2023/01/28 04:49:48;;;;;;;1.80;1.10;;;5.30;40.00;;;;;;4952918;29;20199;-73
2023/01/28 04:52:14;;;;;;;1.90;1.33;;;5.10;40.00;;;;;;4955331;29;20191;-73
2023/01/28 04:54:39;;;;;;;1.97;1.33;;;4.80;40.20;;;;;;4952774;29;20562;-76
2023/01/28 04:57:05;;;;;;;2.57;1.93;;;5.30;39.90;;;;;;4955772;29;20740;-73
2023/01/28 04:59:30;;;;;;;1.90;1.30;;;5.30;39.10;;;;;;4951598;29;20239;-73
2023/01/28 05:01:56;;;;;;;1.83;1.27;;;5.20;40.70;;;;;;4955529;29;20206;-73
2023/01/28 05:04:21;;;;;;;1.90;1.30;;;5.40;39.80;;;;;;4954678;29;20552;-76
2023/01/28 05:06:47;;;;;;;1.80;1.20;;;5.40;39.40;;;;;;4955408;29;20183;-72
2023/01/28 05:09:12;;;;;;;2.47;1.60;;;5.60;39.10;;;;;;4952986;28;20219;-73
2023/01/28 05:11:38;;;;;;;2.53;1.47;;;5.60;38.90;;;;;;4954620;29;20199;-75
2023/01/28 05:14:04;;;;;;;2.10;1.43;;;5.50;39.30;;;;;;4955305;29;20203;-76
2023/01/28 05:16:30;;;;;;;1.80;1.20;;;5.60;39.00;;;;;;4954283;29;20218;-72
2023/01/28 05:18:56;;;;;;;2.00;1.42;;;5.40;38.70;;;;;;4954393;28;20217;-73
2023/01/28 05:21:22;;;;;;;1.80;1.20;;;4.60;41.30;;;;;;4953287;29;20651;-72
2023/01/28 05:23:47;;;;;;;1.87;1.23;;;4.70;42.40;;;;;;4955241;29;20190;-72
2023/01/28 05:26:13;;;;;;;1.90;1.30;;;5.00;41.00;;;;;;4954290;29;20191;-72
2023/01/28 05:28:38;;;;;;;2.53;1.60;;;5.20;40.30;;;;;;4954679;28;20209;-73
2023/01/28 05:31:05;;;;;;;1.80;1.20;;;5.30;39.90;;;;;;4931838;29;20183;-72
2023/01/28 05:33:32;;;;;;;1.80;1.20;;;5.20;40.40;;;;;;4955952;29;20269;-73
2023/01/28 05:35:58;;;;;;;1.95;1.35;;;5.40;40.00;;;;;;4954261;28;20179;-73
2023/01/28 05:38:23;;;;;;;1.80;1.20;;;5.40;40.20;;;;;;4955110;28;20568;-74
2023/01/28 05:40:49;;;;;;;1.80;1.20;;;5.40;39.80;;;;;;4953525;29;20446;-72
2023/01/28 05:43:15;;;;;;;1.80;1.20;;;5.40;39.50;;;;;;4953634;29;20197;-75
2023/01/28 05:45:40;;;;;;;1.80;1.20;;;5.30;39.70;;;;;;4952523;29;20274;-73
2023/01/28 05:48:06;;;;;;;1.80;1.20;;;5.30;40.20;;;;;;4954694;28;20203;-72
2023/01/28 05:50:32;;;;;;;2.00;1.40;;;5.50;39.70;;;;;;4951073;29;20449;-73
2023/01/28 05:52:57;;;;;;;1.80;1.20;;;5.50;40.20;;;;;;4952632;29;20636;-74
2023/01/28 05:55:23;;;;;;;1.80;1.20;;;5.70;39.20;;;;;;4954751;29;20202;-75
2023/01/28 05:57:49;;;;;;;2.43;1.53;;;5.50;39.30;;;;;;4954694;28;20286;-73
2023/01/28 06:00:16;;;;;;;1.75;1.13;;;5.10;40.40;;;;;;4953298;28;20187;-73
2023/01/28 06:02:42;;;;;;;2.53;1.60;;;5.40;39.90;;;;;;4949388;29;20740;-73
2023/01/28 06:05:08;;;;;;;1.70;1.10;;;5.50;39.30;;;;;;4953818;29;20190;-73
2023/01/28 06:07:34;;;;;;;1.80;1.20;;;5.30;39.90;;;;;;4953301;28;20706;-74
2023/01/28 06:09:59;;;;;;;1.80;1.30;;;5.20;40.40;;;;;;4954205;29;20505;-79
2023/01/28 06:12:25;;;;;;;1.90;1.40;;;5.30;39.70;;;;;;4951766;29;20215;-72
2023/01/28 06:14:50;;;;;;;1.80;1.20;;;5.30;40.20;;;;;;4950980;29;20194;-74
2023/01/28 06:17:16;;;;;;;2.20;1.50;;;5.50;40.00;;;;;;4953271;29;20246;-74
2023/01/28 06:19:42;;;;;;;1.87;1.40;;;5.50;39.40;;;;;;4953966;29;20640;-75
2023/01/28 06:22:08;;;;;;;1.90;1.30;;;5.60;39.30;;;;;;4952482;28;20207;-74
2023/01/28 06:24:34;;;;;;;1.80;1.20;;;5.60;39.30;;;;;;4946244;29;20681;-74
2023/01/28 06:26:59;;;;;;;1.90;1.30;;;5.60;40.40;;;;;;4954099;29;20915;-74
2023/01/28 06:29:25;;;;;;;1.80;1.30;;;5.50;39.60;;;;;;4954343;28;20191;-74
2023/01/28 06:31:51;;;;;;;2.53;1.80;;;5.50;39.60;;;;;;4952335;29;20545;-74
2023/01/28 06:34:16;;;;;;;3.90;2.20;;;5.50;39.30;;;;;;4951220;29;20203;-74
2023/01/28 06:36:42;;;;;;;2.10;1.40;;;5.60;39.40;;;;;;4953439;29;20222;-77
2023/01/28 06:39:07;;;;;;;2.33;1.47;;;5.50;39.30;;;;;;4952700;28;20195;-74
2023/01/28 06:41:33;;;;;;;2.37;1.60;;;5.50;39.30;;;;;;4951788;29;21664;-75
2023/01/28 06:43:59;;;;;;;2.33;1.50;;;5.40;39.60;;;;;;4952367;29;20588;-75
2023/01/28 06:46:24;;;;;;;4.23;2.77;;;5.30;39.80;;;;;;4951005;29;20190;-73
2023/01/28 06:48:50;;;;;;;1.90;1.30;;;5.40;39.90;;;;;;4952237;28;20210;-72
2023/01/28 06:51:15;;;;;;;1.80;1.20;;;5.50;39.90;;;;;;4951331;29;20222;-74
2023/01/28 06:53:41;;;;;;;1.77;1.20;;;5.40;39.60;;;;;;4953208;29;20245;-73
2023/01/28 06:56:07;;;;;;;2.10;1.57;;;5.30;40.30;;;;;;4949788;29;20184;-73
2023/01/28 06:58:33;;;;;;;1.70;1.20;;;5.50;40.10;;;;;;4948904;29;20690;-73
2023/01/28 07:00:59;;;;;;;1.80;1.20;;;5.60;39.40;;;;;;4952647;29;20577;-75
2023/01/28 07:03:25;;;;;;;2.40;1.50;;;5.60;39.50;;;;;;4953133;29;20266;-72
2023/01/28 07:05:50;;;;;;;2.10;1.30;;;5.50;40.40;;;;;;4953564;29;20186;-75
2023/01/28 07:08:16;;;;;;;1.90;1.40;;;5.70;39.30;;;;;;4945861;29;20218;-75
2023/01/28 07:10:42;;;;;;;1.87;1.30;;;5.70;39.30;;;;;;4947491;29;20194;-74
2023/01/28 07:13:08;;;;;;;2.22;1.60;;;5.70;39.50;;;;;;4953197;29;20199;-71
2023/01/28 07:15:34;;;;;;;1.80;1.20;;;5.70;39.50;;;;;;4967787;28;20647;-71
2023/01/28 07:17:59;;;;;;;1.70;1.20;;;5.60;39.40;;;;;;4953332;28;20198;-71
2023/01/28 07:20:25;;;;;;;2.03;1.50;;;5.70;39.80;;;;;;4941236;29;20701;-72
2023/01/28 07:22:51;;;;;;;2.00;1.53;;;5.70;39.10;;;;;;4949495;29;20186;-71
2023/01/28 07:25:16;;;;;;;8.80;3.73;;;5.50;39.80;;;;;;4952672;29;20183;-71
2023/01/28 07:27:50;;;;;;;1.80;1.20;;;5.60;39.40;;;;;;4953181;28;20278;-71
2023/01/28 07:30:17;;;;;;;1.70;1.20;;;5.70;39.20;;;;;;4950786;29;20682;-71
2023/01/28 07:32:43;;;;;;;2.10;1.60;;;5.50;39.70;;;;;;4947883;28;20214;-71
2023/01/28 07:35:08;;;;;;;1.80;1.20;;;5.60;39.70;;;;;;4953250;29;20182;-71
2023/01/28 07:37:34;;;;;;;1.70;1.20;;;5.70;39.10;;;;;;4953131;28;20187;-72
2023/01/28 07:40:00;;;;;;;1.87;1.30;;;5.70;39.40;;;;;;4952475;29;20534;-71
2023/01/28 07:42:25;;;;;;;1.70;1.20;;;5.90;39.00;;;;;;4948316;29;20183;-72
2023/01/28 07:44:51;;;;;;;1.83;1.30;;;5.90;39.30;;;;;;4952395;29;20214;-71
2023/01/28 07:47:17;;;;;;;2.80;1.60;;;5.80;39.20;;;;;;4949238;29;20195;-71
2023/01/28 07:49:42;;;;;;;1.77;1.20;;;6.00;38.70;;;;;;4951065;28;20187;-71
2023/01/28 07:52:08;;;;;;;1.97;1.43;;;7.40;40.70;;;;;;4948482;29;20500;-71
2023/01/28 07:54:34;;;;;;;2.10;1.50;;;5.40;40.00;;;;;;4950861;28;20597;-71
2023/01/28 07:56:59;;;;;;;1.90;1.30;;;5.40;40.60;;;;;;4951927;29;20207;-71
2023/01/28 07:59:25;;;;;;;1.70;1.20;;;5.70;40.10;;;;;;4951789;28;20210;-72
2023/01/28 08:01:52;;;;;;;1.90;1.40;;;5.80;39.50;;;;;;4952926;29;20187;-70
2023/01/28 08:04:18;;;;;;;1.75;1.20;;;5.80;39.70;;;;;;4938152;29;20419;-75
2023/01/28 08:06:44;;;;;;;1.80;1.23;;;6.00;39.00;;;;;;4953092;29;20182;-71
2023/01/28 08:09:09;;;;;;;2.10;1.50;;;5.50;39.50;;;;;;4952899;28;20222;-71
2023/01/28 08:11:37;;;;;;;1.73;1.20;;;5.50;40.30;;;;;;4950518;29;20246;-71
2023/01/28 08:14:04;;;;;;;2.25;1.58;;;5.10;41.70;;;;;;4951900;29;20211;-71
2023/01/28 08:16:30;;;;;;;1.80;1.20;;;5.30;41.30;;;;;;4953027;29;20176;-71
2023/01/28 08:18:56;;;;;;;1.70;1.20;;;5.50;40.30;;;;;;4952896;28;20694;-71
2023/01/28 08:21:21;;;;;;;2.58;1.80;;;5.80;39.60;;;;;;4948226;29;20899;-71
2023/01/28 08:23:47;;;;;;;1.70;1.20;;;6.00;39.30;;;;;;4953659;28;20226;-71
2023/01/28 08:26:13;;;;;;;2.07;1.57;;;6.00;39.30;;;;;;4956168;29;20702;-71
2023/01/28 08:28:38;;;;;;;1.90;1.30;;;6.00;39.40;;;;;;4955704;28;20203;-73
2023/01/28 08:31:04;;;;;;;1.90;1.40;;;5.90;39.40;;;;;;4955705;29;20194;-71
2023/01/28 08:33:30;;;;;;;1.90;1.40;;;5.70;39.60;;;;;;4951276;29;20701;-71
2023/01/28 08:35:55;;;;;;;4.90;1.60;;;5.70;39.90;;;;;;4954654;28;20715;-71
2023/01/28 08:38:21;;;;;;;2.00;1.40;;;5.90;39.00;;;;;;4950842;28;20204;-71
2023/01/28 08:40:49;;;;;;;1.80;1.30;;;5.50;40.10;;;;;;4953821;28;20179;-74
2023/01/28 08:43:15;;;;;;;1.88;1.30;;;5.30;40.20;;;;;;4955529;28;20426;-71
2023/01/28 08:45:41;;;;;;;1.77;1.17;;;5.60;40.70;;;;;;4955125;28;20191;-71
2023/01/28 08:48:09;;;;;;;1.80;1.20;;;5.60;40.20;;;;;;4952681;28;20477;-71
2023/01/28 08:50:37;;;;;;;2.00;1.50;;;5.70;40.00;;;;;;4953345;29;20211;-71
2023/01/28 08:53:05;;;;;;;1.80;1.30;;;5.60;40.20;;;;;;4955495;29;20710;-71
2023/01/28 08:55:32;;;;;;;1.77;1.20;;;5.80;39.50;;;;;;4955821;28;20183;-71
2023/01/28 08:58:01;;;;;;;1.90;1.30;;;5.80;40.40;;;;;;4955691;28;20310;-71
2023/01/28 09:00:27;;;;;;;1.85;1.30;;;6.00;39.40;;;;;;4963291;28;20632;-71
2023/01/28 09:02:53;;;;;;;1.80;1.30;;;6.10;39.60;;;;;;4954833;29;20195;-71
2023/01/28 09:05:18;;;;;;;2.00;1.60;;;6.00;39.30;;;;;;4955190;29;20674;-72
2023/01/28 09:07:44;;;;;;;1.70;1.20;;;6.20;39.10;;;;;;4949862;29;20750;-71
2023/01/28 09:10:10;;;;;;;2.40;1.87;;;6.10;38.90;;;;;;4951056;29;20183;-72
2023/01/28 09:12:36;;;;;;;2.00;1.47;;;5.70;40.10;;;;;;4949838;29;20524;-72
2023/01/28 09:15:02;;;;;;;2.40;1.80;;;5.80;39.50;;;;;;4951612;29;20179;-72
2023/01/28 09:17:28;;;;;;;1.75;1.25;;;6.10;39.30;;;;;;4948793;29;20860;-72
2023/01/28 09:19:53;;;;;;;2.03;1.53;;;5.70;39.80;;;;;;4950442;28;20343;-71
2023/01/28 09:22:19;;;;;;;1.70;1.20;;;5.60;40.00;;;;;;4954646;29;20280;-72
2023/01/28 09:24:45;;;;;;;5.90;3.93;;;5.60;40.40;;;;;;4954411;29;20237;-71
2023/01/28 09:27:11;;;;;;;1.80;1.30;;;5.80;40.10;;;;;;4946257;29;20216;-72
2023/01/28 09:29:37;;;;;;;2.63;1.80;;;6.30;38.70;;;;;;4949907;29;20191;-76
2023/01/28 09:32:04;;;;;;;1.88;1.35;;;6.40;38.30;;;;;;4948630;29;20435;-72
2023/01/28 09:34:29;;;;;;;1.70;1.20;;;6.20;38.30;;;;;;4946204;28;20695;-71
2023/01/28 09:36:55;;;;;;;1.73;1.30;;;6.20;39.10;;;;;;4947053;29;20206;-71
2023/01/28 09:39:20;;;;;;;1.80;1.40;;;6.40;38.20;;;;;;4951408;28;20210;-73
2023/01/28 09:42:18;;;;;;;2.00;1.57;;;6.20;37.90;;;;;;4954781;29;20185;-71
2023/01/28 09:45:02;;;;;;;2.30;1.73;;;6.20;38.90;;;;;;4954475;28;20274;-71
2023/01/28 09:47:40;;;;;;;1.70;1.20;;;6.40;38.30;;;;;;4954668;28;20219;-71
2023/01/28 09:50:14;;;;;;;1.70;1.23;;;6.30;38.40;;;;;;4954600;29;20183;-71
2023/01/28 09:52:41;;;;;;;3.15;1.90;;;6.50;38.20;;;;;;4954142;28;20246;-71
2023/01/28 09:55:30;;;;;;;1.67;1.17;;;6.30;38.90;;;;;;4954893;28;20186;-71
2023/01/28 09:57:56;;;;;;;1.70;1.20;;;5.80;40.40;;;;;;4954175;28;20207;-71
2023/01/28 10:00:27;;;;;;;1.90;1.43;;;5.90;39.50;;;;;;4954331;29;20214;-71
2023/01/28 10:03:08;;;;;;;1.70;1.20;;;6.00;39.30;;;;;;4954335;29;20411;-71
2023/01/28 10:05:58;;;;;;;1.70;1.23;;;6.10;38.80;;;;;;4954472;29;20179;-71
2023/01/28 10:09:08;;;;;;;1.70;1.10;;;6.00;38.90;;;;;;4954174;28;20234;-72
2023/01/28 10:12:03;;;;;;;3.17;2.13;;;6.30;38.40;;;;;;4953917;29;20167;-71
2023/01/28 10:14:40;;;;;;;1.70;1.20;;;6.50;38.40;;;;;;4953629;29;20293;-71
2023/01/28 10:17:15;;;;;;;1.60;1.10;;;6.70;37.80;;;;;;4952953;29;20183;-71
2023/01/28 10:19:46;;;;;;;1.92;1.42;;;6.80;37.60;;;;;;4954116;29;20175;-71
2023/01/28 10:22:22;;;;;;;1.70;1.20;;;6.60;37.30;;;;;;4954516;29;20173;-73
2023/01/28 10:24:54;;;;;;;1.80;1.30;;;6.90;37.00;;;;;;4953593;29;20657;-71
2023/01/28 10:27:26;;;;;;;2.88;1.75;;;6.90;36.60;;;;;;4953747;28;20183;-71
2023/01/28 10:29:52;;;;;;;1.90;1.40;;;7.10;36.40;;;;;;4953220;29;20651;-71
2023/01/28 10:32:30;;;;;;;2.30;1.58;;;6.90;36.10;;;;;;4951158;29;20698;-72
2023/01/28 10:35:03;;;;;;;2.15;1.65;;;6.80;36.70;;;;;;4960072;28;20231;-71
2023/01/28 10:37:36;;;;;;;1.80;1.30;;;7.00;36.40;;;;;;4952468;28;20683;-72
2023/01/28 10:40:03;;;;;;;12.50;3.10;;;6.90;37.60;;;;;;4947626;29;20187;-72
2023/01/28 10:42:33;;;;;;;1.98;1.38;;;7.10;36.30;;;;;;4952124;28;20190;-74
2023/01/28 10:45:15;;;;;;;2.00;1.60;;;7.40;35.30;;;;;;4949446;28;20262;-71
2023/01/28 10:47:53;;;;;;;1.80;1.30;;;7.20;34.50;;;;;;4952456;29;20216;-71
2023/01/28 10:50:27;;;;;;;1.90;1.40;;;6.70;36.00;;;;;;4951581;29;20258;-71
2023/01/28 10:52:55;;;;;;;1.80;1.38;;;6.70;36.30;;;;;;4947318;29;20210;-71
2023/01/28 10:55:23;;;;;;;2.58;2.03;;;6.90;36.50;;;;;;4943593;29;20259;-71
2023/01/28 10:57:49;;;;;;;2.35;1.73;;;7.30;35.10;;;;;;4952312;28;20806;-72
2023/01/28 11:00:34;;;;;;;2.17;1.70;;;7.60;34.20;;;;;;4953535;29;20168;-74
2023/01/28 11:03:00;;;;;;;1.80;1.33;;;7.60;33.50;;;;;;4953153;29;20461;-71
2023/01/28 11:05:29;;;;;;;2.60;1.93;;;7.60;34.40;;;;;;4953126;29;20203;-71
2023/01/28 11:08:04;;;;;;;1.80;1.20;;;7.70;34.30;;;;;;4953182;28;20274;-71
2023/01/28 11:10:32;;;;;;;2.92;1.70;;;7.70;32.60;;;;;;4953531;29;20241;-71
2023/01/28 11:13:00;;;;;;;1.95;1.35;;;7.90;33.50;;;;;;4952870;29;20218;-71
2023/01/28 11:15:25;;;;;;;1.80;1.30;;;7.50;34.00;;;;;;4953188;29;20206;-71
2023/01/28 11:17:57;;;;;;;2.10;1.40;;;7.50;33.30;;;;;;4953232;28;20232;-72
2023/01/28 11:20:26;;;;;;;1.80;1.27;;;7.20;35.20;;;;;;4953792;29;20147;-71
2023/01/28 11:22:53;;;;;;;3.35;2.33;;;7.20;34.00;;;;;;4952333;29;20597;-71
2023/01/28 11:25:36;;;;;;;2.00;1.40;;;7.20;33.50;;;;;;4953315;29;20543;-71
2023/01/28 11:28:07;;;;;;;1.90;1.40;;;7.70;33.10;;;;;;4953219;28;20199;-71
2023/01/28 11:30:39;;;;;;;1.80;1.20;;;7.90;31.50;;;;;;4953310;29;20171;-71
2023/01/28 11:33:04;;;;;;;2.67;1.80;;;7.80;32.70;;;;;;4952933;29;20192;-71
2023/01/28 11:35:30;;;;;;;1.80;1.20;;;7.80;32.70;;;;;;4953011;29;20198;-71
2023/01/28 11:37:57;;;;;;;2.43;1.70;;;7.50;32.20;;;;;;4935259;29;20614;-71
2023/01/28 11:40:23;;;;;;;1.80;1.20;;;7.60;32.10;;;;;;4953283;29;20355;-72
2023/01/28 11:42:50;;;;;;;2.20;1.67;;;7.50;33.00;;;;;;4952660;28;20681;-71
2023/01/28 11:45:19;;;;;;;1.80;1.13;;;7.10;33.20;;;;;;4953070;29;20863;-71
2023/01/28 11:47:59;;;;;;;2.03;1.50;;;7.20;32.80;;;;;;4952799;28;20206;-71
2023/01/28 11:50:50;;;;;;;1.90;1.30;;;7.00;33.70;;;;;;4953111;29;20164;-72
2023/01/28 11:53:24;;;;;;;1.77;1.25;;;7.10;32.10;;;;;;4952738;29;20564;-74
2023/01/28 11:56:05;;;;;;;1.70;1.20;;;7.00;32.80;;;;;;4952584;29;20175;-73
2023/01/28 11:58:40;;;;;;;1.70;1.15;;;7.10;33.10;;;;;;4954635;28;20199;-71
2023/01/28 12:01:11;;;;;;;1.75;1.20;;;7.60;32.40;;;;;;4956626;29;20220;-71
2023/01/28 12:03:58;;;;;;;1.80;1.20;;;7.70;32.30;;;;;;4956221;29;20289;-71
2023/01/28 12:06:49;;;;;;;1.83;1.27;;;7.40;32.30;;;;;;4956634;29;20191;-71
2023/01/28 12:09:28;;;;;;;2.10;1.50;;;7.40;32.60;;;;;;4956321;28;20211;-72
2023/01/28 12:12:10;;;;;;;1.90;1.35;;;7.20;32.30;;;;;;4955884;29;20198;-71
2023/01/28 12:14:36;;;;;;;1.80;1.20;;;7.30;32.40;;;;;;4956238;29;20187;-71
2023/01/28 12:17:09;;;;;;;4.10;1.60;;;7.00;33.30;;;;;;4956513;29;20179;-71
2023/01/28 12:19:44;;;;;;;4.82;2.13;;;6.80;35.20;;;;;;4956387;29;20178;-71
2023/01/28 12:22:58;;;;;;;1.90;1.30;;;7.10;34.10;;;;;;4956304;29;20183;-71
2023/01/28 12:26:05;;;;;;;1.90;1.33;;;6.90;33.40;;;;;;4896973;29;20177;-71
2023/01/28 12:28:30;;;;;;;1.90;1.38;;;6.90;34.60;;;;;;4943231;28;20220;-71
2023/01/28 12:31:25;;;;;;;1.77;1.20;;;7.10;34.20;;;;;;4955982;29;20655;-71
2023/01/28 12:34:22;;;;;;;2.30;1.63;;;7.20;33.40;;;;;;4957130;29;20195;-71
2023/01/28 12:37:06;;;;;;;2.70;2.10;;;7.10;34.10;;;;;;4955885;29;20628;-71
2023/01/28 12:40:00;;;;;;;2.22;1.40;;;7.00;34.70;;;;;;4954714;28;20234;-72
2023/01/28 12:42:41;;;;;;;1.88;1.35;;;7.10;34.90;;;;;;4955721;28;20553;-71
2023/01/28 12:45:50;;;;;;;2.10;1.50;;;7.10;34.30;;;;;;4956054;29;20647;-71
2023/01/28 12:48:46;;;;;;;3.85;1.77;;;6.90;35.40;;;;;;4877837;29;20595;-71
2023/01/28 12:51:35;;;;;;;2.13;1.45;;;6.70;35.10;;;;;;4884523;29;20205;-76
2023/01/28 12:54:18;;;;;;;1.80;1.20;;;6.80;34.60;;;;;;4868037;29;20230;-70
2023/01/28 12:56:51;;;;;;;2.00;1.40;;;6.80;34.90;;;;;;4888545;29;20204;-71
2023/01/28 12:59:48;;;;;;;2.00;1.42;;;6.80;34.90;;;;;;4885852;29;20205;-70
2023/01/28 13:02:36;;;;;;;2.30;1.40;;;6.70;34.90;;;;;;4874752;29;20277;-70
2023/01/28 13:05:13;;;;;;;5.22;2.05;;;6.70;34.90;;;;;;4877541;29;20286;-71
2023/01/28 13:07:54;;;;;;;1.80;1.20;;;6.80;34.90;;;;;;4876974;29;20248;-70
2023/01/28 13:10:43;;;;;;;1.90;1.30;;;6.80;34.70;;;;;;4877407;29;20202;-71
2023/01/28 13:13:27;;;;;;;4.70;2.35;;;6.60;35.20;;;;;;4878959;29;20305;-71
2023/01/28 13:15:52;;;;;;;1.90;1.30;;;6.60;35.30;;;;;;4876277;29;20274;-71
2023/01/28 13:18:47;;;;;;;1.80;1.30;;;6.80;34.80;;;;;;4892506;29;20205;-73
2023/01/28 13:21:16;;;;;;;1.80;1.20;;;6.90;34.70;;;;;;4806046;29;20195;-70
2023/01/28 13:23:43;;;;;;;2.97;2.42;;;6.90;35.30;;;;;;4859761;29;20186;-73
2023/01/28 13:26:41;;;;;;;2.53;1.85;;;7.20;34.60;;;;;;4851984;29;20198;-71
2023/01/28 13:29:27;;;;;;;1.83;1.38;;;7.20;34.00;;;;;;4853459;29;20242;-71
2023/01/28 13:31:59;;;;;;;2.08;1.50;;;7.50;35.80;;;;;;4847487;29;20198;-71
2023/01/28 13:34:35;;;;;;;1.95;1.50;;;6.20;32.70;;;;;;4855517;29;20203;-74
2023/01/28 13:37:38;;;;;;;3.10;2.28;;;8.30;33.00;;;;;;4855116;29;20270;-71
2023/01/28 13:40:03;;;;;;;1.90;1.38;;;8.60;32.10;;;;;;4853191;29;20190;-71
2023/01/28 13:42:30;;;;;;;2.20;1.60;;;9.00;31.20;;;;;;4856724;29;20293;-73